createdAt,value
2022-10-11T00:04:06.945Z,18.98
2022-10-11T00:14:09.906Z,28.17
2022-10-11T00:24:16.098Z,21.13
2022-10-11T00:34:19.046Z,20.52
2022-10-11T00:44:25.739Z,26.23
2022-10-11T00:54:32.677Z,22.38
2022-10-11T01:04:37.125Z,26.83
2022-10-11T01:15:15.479Z,20.30
2022-10-11T01:25:31.007Z,21.00
2022-10-11T01:35:42.675Z,19.73
2022-10-11T01:45:49.098Z,25.15
2022-10-11T01:55:58.436Z,17.63
2022-10-11T02:06:09.172Z,18.23
2022-10-11T02:16:19.453Z,24.13
2022-10-11T02:26:24.707Z,23.52
2022-10-11T02:36:37.378Z,20.45
2022-10-11T02:46:41.914Z,23.60
2022-10-11T02:56:46.251Z,25.47
2022-10-11T03:06:49.161Z,17.97
2022-10-11T03:16:53.469Z,30.70
2022-10-11T03:26:56.512Z,23.93
2022-10-11T03:37:00.797Z,23.83
2022-10-11T03:47:03.745Z,17.07
2022-10-11T03:57:08.060Z,28.08
2022-10-11T04:07:11.343Z,22.73
2022-10-11T04:17:15.747Z,29.73
2022-10-11T04:27:18.711Z,27.90
2022-10-11T04:37:22.986Z,26.08
2022-10-11T04:47:26.063Z,29.60
2022-10-11T04:57:30.307Z,25.40
2022-10-11T05:07:33.405Z,24.00
2022-10-11T05:17:37.734Z,30.00
2022-10-11T05:27:40.718Z,41.17
2022-10-11T05:37:45.040Z,34.13
2022-10-11T05:47:48.009Z,37.43
2022-10-11T05:57:54.714Z,31.17
2022-10-11T06:07:58.943Z,34.17
2022-10-11T06:18:03.254Z,30.30
2022-10-11T06:28:06.327Z,31.63
2022-10-11T06:38:10.924Z,30.48
2022-10-11T06:48:14.097Z,27.07
2022-10-11T06:58:18.742Z,31.13
2022-10-11T07:08:21.724Z,27.03
2022-10-11T07:18:26.053Z,42.83
2022-10-11T07:28:30.694Z,49.93
2022-10-11T07:38:41.004Z,43.70
2022-10-11T07:48:44.007Z,46.35
2022-10-11T07:58:52.177Z,40.78
2022-10-11T08:08:55.387Z,36.90
2022-10-11T08:19:01.017Z,34.30
2022-10-11T08:29:05.441Z,27.02
2022-10-11T08:39:11.149Z,20.50
2022-10-11T08:49:17.014Z,22.42
2022-10-11T08:59:31.601Z,17.30
2022-10-11T09:09:55.782Z,19.73
2022-10-11T09:20:19.343Z,18.45
2022-10-11T09:30:22.549Z,21.70
2022-10-11T09:40:46.418Z,20.25
2022-10-11T09:50:50.448Z,17.05
2022-10-11T10:01:06.590Z,23.95
2022-10-11T10:11:12.383Z,22.17
2022-10-11T10:21:17.481Z,12.20
2022-10-11T10:31:23.410Z,12.80
2022-10-11T10:41:28.434Z,18.13
2022-10-11T11:01:56.946Z,12.30
2022-10-11T11:12:12.888Z,15.68
2022-10-11T11:22:32.747Z,18.98
2022-10-11T11:32:49.075Z,19.48
2022-10-11T11:42:58.331Z,19.83
2022-10-11T11:53:07.755Z,12.52
2022-10-11T12:03:16.573Z,11.25
2022-10-11T12:13:22.966Z,19.17
2022-10-11T12:23:47.269Z,14.30
2022-10-11T12:33:54.427Z,14.17
2022-10-11T12:44:22.158Z,14.98
2022-10-11T12:54:46.647Z,11.00
2022-10-11T13:04:51.073Z,13.57
2022-10-11T13:15:00.827Z,18.35
2022-10-11T13:25:08.131Z,13.95
2022-10-11T13:35:21.046Z,16.63
2022-10-11T13:45:31.495Z,15.52
2022-10-11T13:55:36.790Z,17.75
2022-10-11T14:05:43.571Z,14.75
2022-10-11T14:15:46.583Z,15.98
2022-10-11T14:25:52.964Z,11.93
2022-10-11T14:35:55.970Z,15.00
2022-10-11T14:46:00.451Z,12.32
2022-10-11T14:56:04.327Z,14.32
2022-10-11T15:06:17.671Z,21.10
2022-10-11T15:16:22.565Z,15.10
2022-10-11T15:26:29.104Z,15.75
2022-10-11T15:36:32.248Z,16.65
2022-10-11T15:46:38.095Z,14.50
2022-10-11T15:56:41.136Z,10.25
2022-10-11T16:06:45.529Z,14.05
2022-10-11T16:16:48.621Z,17.23
2022-10-11T16:26:53.017Z,12.13
2022-10-11T16:36:56.162Z,9.83
2022-10-11T16:47:01.416Z,12.98
2022-10-11T16:57:05.408Z,21.73
2022-10-11T17:07:12.455Z,25.33
2022-10-11T17:17:16.526Z,22.88
2022-10-11T17:27:20.876Z,25.77
2022-10-11T17:37:23.847Z,15.70
2022-10-11T17:47:28.515Z,20.65
2022-10-11T17:57:31.550Z,20.87
2022-10-11T18:07:36.102Z,30.70
2022-10-11T18:17:39.173Z,30.43
2022-10-11T18:27:44.350Z,32.05
2022-10-11T18:47:52.473Z,39.60
2022-10-11T18:57:55.728Z,36.53
2022-10-11T19:08:00.283Z,34.42
2022-10-11T19:18:03.343Z,37.63
2022-10-11T19:28:12.381Z,42.25
2022-10-11T19:48:29.542Z,46.30
2022-10-11T19:58:32.859Z,39.50
2022-10-11T20:08:38.083Z,29.00
2022-10-11T20:28:46.366Z,33.05
2022-10-11T20:49:01.158Z,32.08
2022-10-11T20:59:06.294Z,38.95
2022-10-11T21:09:12.666Z,29.13
2022-10-11T21:19:18.558Z,30.58
2022-10-11T21:29:22.969Z,24.85
2022-10-11T21:39:25.875Z,37.60
2022-10-11T21:49:30.506Z,28.70
2022-10-11T21:59:33.834Z,30.00
2022-10-11T22:09:38.360Z,31.10
2022-10-11T22:19:41.565Z,25.87
2022-10-11T22:29:45.830Z,31.17
2022-10-11T22:39:48.735Z,25.05
2022-10-11T22:49:53.056Z,30.60
2022-10-11T22:59:55.968Z,23.33
2022-10-11T23:10:00.332Z,28.13
2022-10-11T23:20:03.264Z,20.80
2022-10-11T23:30:09.089Z,29.77
2022-10-11T23:40:12.209Z,20.50
2022-10-11T23:50:16.639Z,26.60
